DLH9PZ EDDH-EDDF
Flight info
| Callsign | DLH9PZ |
|---|---|
| Flight time | 0h 49m |
| Altitude | 28000 |
| Route | AMLUH2G/33 AMLUH M852 DENIX DCT RIMET T157 KERAX KERAX5A |
| Aircraft | A321/M-SDE3FGHIRWY/LB1 |
Departure
| Time | 2026-05-05 09:48 |
|---|---|
| Airport | Hamburg Helmut Schmidt Airport (EDDH) |
Arrival
| Time | 2026-05-05 10:37 |
|---|---|
| Airport | Frankfurt Main Airport (EDDF) |
| Time | Latitude | Longitude | Altitude | Speed | Heading |
|---|---|---|---|---|---|
| 2026-05-05 09:19 | 53.63168 | 10.00374 | 49 ft | 0 kts | 87° |
| 2026-05-05 09:42 | 53.63168 | 10.00373 | 48 ft | 1 kts | 87° |
| 2026-05-05 09:42 | 53.63166 | 10.00331 | 48 ft | 4 kts | 87° |
| 2026-05-05 09:43 | 53.63165 | 10.00286 | 48 ft | 4 kts | 86° |
| 2026-05-05 09:43 | 53.63164 | 10.00250 | 47 ft | 4 kts | 92° |
| 2026-05-05 09:43 | 53.63169 | 10.00207 | 46 ft | 4 kts | 123° |
| 2026-05-05 09:43 | 53.63186 | 10.00183 | 47 ft | 3 kts | 174° |
| 2026-05-05 09:44 | 53.63189 | 10.00182 | 47 ft | 0 kts | 176° |
| 2026-05-05 09:45 | 53.63185 | 10.00183 | 47 ft | 2 kts | 176° |
| 2026-05-05 09:46 | 53.63152 | 10.00188 | 47 ft | 8 kts | 175° |
| 2026-05-05 09:46 | 53.63094 | 10.00193 | 48 ft | 9 kts | 185° |
| 2026-05-05 09:46 | 53.63031 | 10.00143 | 48 ft | 11 kts | 212° |
| 2026-05-05 09:46 | 53.62966 | 10.00071 | 48 ft | 12 kts | 213° |
| 2026-05-05 09:47 | 53.62911 | 9.99962 | 47 ft | 13 kts | 242° |
| 2026-05-05 09:47 | 53.62868 | 9.99811 | 45 ft | 16 kts | 253° |
| 2026-05-05 09:47 | 53.62948 | 9.99678 | 45 ft | 25 kts | 333° |
| 2026-05-05 09:47 | 53.63300 | 9.99376 | 47 ft | 93 kts | 333° |
| 2026-05-05 09:48 | 53.64074 | 9.98705 | 52 ft | 154 kts | 333° |
| 2026-05-05 09:48 | 53.65116 | 9.97807 | 469 ft | 168 kts | 337° |
| 2026-05-05 09:48 | 53.66168 | 9.96948 | 1250 ft | 168 kts | 336° |
| 2026-05-05 09:48 | 53.67237 | 9.96031 | 1727 ft | 181 kts | 336° |
| 2026-05-05 09:49 | 53.68432 | 9.95030 | 1999 ft | 202 kts | 341° |
| 2026-05-05 09:49 | 53.69839 | 9.94677 | 2384 ft | 209 kts | 2° |
| 2026-05-05 09:49 | 53.71312 | 9.94694 | 2901 ft | 214 kts | 3° |
| 2026-05-05 09:49 | 53.72709 | 9.95466 | 3401 ft | 218 kts | 39° |
| 2026-05-05 09:50 | 53.73496 | 9.97641 | 3910 ft | 223 kts | 73° |
| 2026-05-05 09:50 | 53.73911 | 10.00181 | 4594 ft | 227 kts | 75° |
| 2026-05-05 09:50 | 53.74095 | 10.02845 | 5219 ft | 233 kts | 96° |
| 2026-05-05 09:50 | 53.73620 | 10.05511 | 5699 ft | 247 kts | 119° |
| 2026-05-05 09:51 | 53.72736 | 10.08124 | 6117 ft | 263 kts | 121° |
| 2026-05-05 09:51 | 53.71789 | 10.10895 | 6608 ft | 280 kts | 121° |
| 2026-05-05 09:51 | 53.70809 | 10.13775 | 7374 ft | 284 kts | 121° |
| 2026-05-05 09:51 | 53.69817 | 10.16684 | 8132 ft | 287 kts | 124° |
| 2026-05-05 09:52 | 53.68542 | 10.19265 | 8856 ft | 287 kts | 141° |
| 2026-05-05 09:52 | 53.66889 | 10.21122 | 9580 ft | 286 kts | 158° |
| 2026-05-05 09:52 | 53.65002 | 10.22169 | 10185 ft | 290 kts | 167° |
| 2026-05-05 09:52 | 53.62980 | 10.23073 | 10319 ft | 312 kts | 167° |
| 2026-05-05 09:53 | 53.60810 | 10.24050 | 10449 ft | 333 kts | 167° |
| 2026-05-05 09:53 | 53.58515 | 10.25091 | 10656 ft | 349 kts | 167° |
| 2026-05-05 09:53 | 53.56955 | 10.25806 | 10972 ft | 353 kts | 167° |
| 2026-05-05 09:53 | 53.54569 | 10.26906 | 11505 ft | 358 kts | 166° |
| 2026-05-05 09:54 | 53.52156 | 10.28018 | 12084 ft | 361 kts | 166° |
| 2026-05-05 09:54 | 53.49716 | 10.29136 | 12654 ft | 365 kts | 166° |
| 2026-05-05 09:54 | 53.47252 | 10.30260 | 13226 ft | 369 kts | 166° |
| 2026-05-05 09:54 | 53.44765 | 10.31393 | 13785 ft | 372 kts | 166° |
| 2026-05-05 09:55 | 53.42250 | 10.32535 | 14281 ft | 376 kts | 166° |
| 2026-05-05 09:55 | 53.38883 | 10.34058 | 14985 ft | 380 kts | 167° |
| 2026-05-05 09:55 | 53.37153 | 10.34836 | 15361 ft | 382 kts | 167° |
| 2026-05-05 09:55 | 53.34575 | 10.35991 | 15916 ft | 385 kts | 167° |
| 2026-05-05 09:56 | 53.31974 | 10.37155 | 16444 ft | 388 kts | 167° |
| 2026-05-05 09:56 | 53.29357 | 10.38327 | 16953 ft | 391 kts | 167° |
| 2026-05-05 09:56 | 53.26720 | 10.39510 | 17415 ft | 394 kts | 167° |
| 2026-05-05 09:56 | 53.24062 | 10.40704 | 17888 ft | 397 kts | 167° |
| 2026-05-05 09:57 | 53.21384 | 10.41906 | 18325 ft | 400 kts | 167° |
| 2026-05-05 09:57 | 53.18686 | 10.43112 | 18735 ft | 403 kts | 167° |
| 2026-05-05 09:57 | 53.15974 | 10.44317 | 19155 ft | 405 kts | 168° |
| 2026-05-05 09:57 | 53.13216 | 10.45234 | 19561 ft | 404 kts | 176° |
| 2026-05-05 09:58 | 53.10414 | 10.45358 | 19975 ft | 403 kts | 186° |
| 2026-05-05 09:58 | 53.07619 | 10.44966 | 20393 ft | 404 kts | 187° |
| 2026-05-05 09:58 | 53.04809 | 10.44569 | 20819 ft | 406 kts | 187° |
| 2026-05-05 09:58 | 53.01984 | 10.44183 | 21240 ft | 408 kts | 187° |
| 2026-05-05 09:59 | 52.99147 | 10.43802 | 21654 ft | 410 kts | 187° |
| 2026-05-05 09:59 | 52.96299 | 10.43419 | 22069 ft | 412 kts | 187° |
| 2026-05-05 09:59 | 52.93433 | 10.43030 | 22480 ft | 414 kts | 187° |
| 2026-05-05 09:59 | 52.90557 | 10.42634 | 22889 ft | 416 kts | 187° |
| 2026-05-05 10:00 | 52.87667 | 10.42234 | 23287 ft | 418 kts | 187° |
| 2026-05-05 10:00 | 52.84761 | 10.41838 | 23660 ft | 420 kts | 187° |
| 2026-05-05 10:00 | 52.81843 | 10.41444 | 24004 ft | 421 kts | 188° |
| 2026-05-05 10:00 | 52.78918 | 10.41046 | 24332 ft | 423 kts | 188° |
| 2026-05-05 10:01 | 52.75980 | 10.40645 | 24661 ft | 425 kts | 188° |
| 2026-05-05 10:01 | 52.73028 | 10.40245 | 24990 ft | 426 kts | 188° |
| 2026-05-05 10:01 | 52.70067 | 10.39849 | 25327 ft | 428 kts | 188° |
| 2026-05-05 10:01 | 52.67090 | 10.39454 | 25663 ft | 430 kts | 189° |
| 2026-05-05 10:02 | 52.64109 | 10.39055 | 25995 ft | 431 kts | 189° |
| 2026-05-05 10:02 | 52.61112 | 10.38652 | 26323 ft | 433 kts | 189° |
| 2026-05-05 10:02 | 52.58107 | 10.38247 | 26642 ft | 434 kts | 189° |
| 2026-05-05 10:02 | 52.55087 | 10.37839 | 26941 ft | 436 kts | 189° |
| 2026-05-05 10:03 | 52.52069 | 10.37431 | 27275 ft | 436 kts | 189° |
| 2026-05-05 10:03 | 52.49041 | 10.37027 | 27598 ft | 437 kts | 189° |
| 2026-05-05 10:03 | 52.46004 | 10.36626 | 27897 ft | 438 kts | 189° |
| 2026-05-05 10:03 | 52.42959 | 10.36224 | 28183 ft | 439 kts | 189° |
| 2026-05-05 10:04 | 52.39905 | 10.35814 | 28479 ft | 441 kts | 189° |
| 2026-05-05 10:04 | 52.36843 | 10.35401 | 28779 ft | 442 kts | 190° |
| 2026-05-05 10:04 | 52.33787 | 10.34992 | 28883 ft | 436 kts | 190° |
| 2026-05-05 10:04 | 52.30796 | 10.34603 | 28867 ft | 428 kts | 189° |
| 2026-05-05 10:05 | 52.24905 | 10.33834 | 28895 ft | 427 kts | 189° |
| 2026-05-05 10:05 | 52.18954 | 10.33040 | 28896 ft | 426 kts | 189° |
| 2026-05-05 10:06 | 52.13070 | 10.32257 | 28898 ft | 426 kts | 189° |
| 2026-05-05 10:06 | 52.07116 | 10.31473 | 28881 ft | 427 kts | 189° |
| 2026-05-05 10:07 | 52.01242 | 10.30705 | 28890 ft | 427 kts | 189° |
| 2026-05-05 10:07 | 51.95323 | 10.29936 | 28900 ft | 427 kts | 189° |
| 2026-05-05 10:08 | 51.89400 | 10.29163 | 28892 ft | 426 kts | 189° |
| 2026-05-05 10:08 | 51.83487 | 10.28380 | 28907 ft | 426 kts | 189° |
| 2026-05-05 10:09 | 51.77587 | 10.27611 | 28905 ft | 425 kts | 188° |
| 2026-05-05 10:09 | 51.71703 | 10.26855 | 28912 ft | 424 kts | 188° |
| 2026-05-05 10:10 | 51.65826 | 10.26097 | 28909 ft | 423 kts | 188° |
| 2026-05-05 10:10 | 51.59954 | 10.25338 | 28905 ft | 423 kts | 188° |
| 2026-05-05 10:11 | 51.54092 | 10.24587 | 28895 ft | 422 kts | 188° |
| 2026-05-05 10:11 | 51.48240 | 10.23835 | 28914 ft | 421 kts | 188° |
| 2026-05-05 10:12 | 51.42400 | 10.23087 | 28906 ft | 421 kts | 188° |
| 2026-05-05 10:12 | 51.36566 | 10.22347 | 28906 ft | 421 kts | 188° |
| 2026-05-05 10:13 | 51.30725 | 10.21719 | 28896 ft | 421 kts | 186° |
| 2026-05-05 10:13 | 51.24860 | 10.21596 | 28900 ft | 422 kts | 184° |
| 2026-05-05 10:14 | 51.18995 | 10.21625 | 28708 ft | 422 kts | 184° |
| 2026-05-05 10:14 | 51.16061 | 10.21613 | 28431 ft | 422 kts | 184° |
| 2026-05-05 10:14 | 51.13123 | 10.21575 | 28159 ft | 422 kts | 184° |
| 2026-05-05 10:15 | 51.10180 | 10.21519 | 27873 ft | 424 kts | 184° |
| 2026-05-05 10:15 | 51.07234 | 10.21450 | 27535 ft | 422 kts | 184° |
| 2026-05-05 10:15 | 51.04309 | 10.21380 | 26920 ft | 418 kts | 184° |
| 2026-05-05 10:15 | 51.01419 | 10.21321 | 26318 ft | 413 kts | 184° |
| 2026-05-05 10:16 | 50.98560 | 10.21273 | 25719 ft | 409 kts | 183° |
| 2026-05-05 10:16 | 50.95727 | 10.21232 | 25134 ft | 405 kts | 183° |
| 2026-05-05 10:16 | 50.92919 | 10.21190 | 24551 ft | 402 kts | 183° |
| 2026-05-05 10:16 | 50.90136 | 10.21144 | 23982 ft | 399 kts | 183° |
| 2026-05-05 10:17 | 50.87374 | 10.21091 | 23377 ft | 396 kts | 183° |
| 2026-05-05 10:17 | 50.84639 | 10.20637 | 22342 ft | 397 kts | 196° |
| 2026-05-05 10:17 | 50.82119 | 10.19042 | 21243 ft | 383 kts | 212° |
| 2026-05-05 10:17 | 50.80081 | 10.16444 | 20327 ft | 377 kts | 228° |
| 2026-05-05 10:18 | 50.78366 | 10.13342 | 19833 ft | 372 kts | 229° |
| 2026-05-05 10:18 | 50.76677 | 10.10298 | 19393 ft | 365 kts | 229° |
| 2026-05-05 10:18 | 50.75011 | 10.07306 | 18958 ft | 359 kts | 229° |
| 2026-05-05 10:18 | 50.73377 | 10.04373 | 18527 ft | 353 kts | 229° |
| 2026-05-05 10:19 | 50.71766 | 10.01485 | 18080 ft | 347 kts | 229° |
| 2026-05-05 10:19 | 50.70176 | 9.98636 | 17628 ft | 345 kts | 229° |
| 2026-05-05 10:19 | 50.68594 | 9.95799 | 17195 ft | 344 kts | 229° |
| 2026-05-05 10:19 | 50.67023 | 9.92978 | 16802 ft | 337 kts | 229° |
| 2026-05-05 10:20 | 50.65542 | 9.90319 | 16562 ft | 310 kts | 228° |
| 2026-05-05 10:20 | 50.64149 | 9.87824 | 15954 ft | 298 kts | 228° |
| 2026-05-05 10:20 | 50.62779 | 9.85384 | 15313 ft | 297 kts | 228° |
| 2026-05-05 10:20 | 50.61416 | 9.82958 | 14706 ft | 297 kts | 228° |
| 2026-05-05 10:21 | 50.60041 | 9.80506 | 14253 ft | 297 kts | 228° |
| 2026-05-05 10:21 | 50.58701 | 9.78094 | 13868 ft | 288 kts | 228° |
| 2026-05-05 10:21 | 50.57404 | 9.75746 | 13498 ft | 283 kts | 228° |
| 2026-05-05 10:21 | 50.56120 | 9.73420 | 13096 ft | 280 kts | 228° |
| 2026-05-05 10:22 | 50.54847 | 9.71109 | 12699 ft | 278 kts | 228° |
| 2026-05-05 10:22 | 50.53582 | 9.68812 | 12317 ft | 277 kts | 228° |
| 2026-05-05 10:22 | 50.52326 | 9.66529 | 11921 ft | 276 kts | 228° |
| 2026-05-05 10:22 | 50.51078 | 9.64258 | 11585 ft | 273 kts | 228° |
| 2026-05-05 10:23 | 50.49840 | 9.62005 | 11259 ft | 272 kts | 228° |
| 2026-05-05 10:23 | 50.48607 | 9.59762 | 10950 ft | 270 kts | 228° |
| 2026-05-05 10:23 | 50.47381 | 9.57532 | 10860 ft | 270 kts | 228° |
| 2026-05-05 10:23 | 50.46150 | 9.55286 | 10871 ft | 272 kts | 228° |
| 2026-05-05 10:24 | 50.44915 | 9.53034 | 10869 ft | 272 kts | 228° |
| 2026-05-05 10:24 | 50.43676 | 9.50774 | 10640 ft | 275 kts | 228° |
| 2026-05-05 10:24 | 50.42430 | 9.48503 | 10278 ft | 275 kts | 228° |
| 2026-05-05 10:24 | 50.41182 | 9.46226 | 9913 ft | 274 kts | 228° |
| 2026-05-05 10:25 | 50.39953 | 9.43981 | 9532 ft | 270 kts | 228° |
| 2026-05-05 10:25 | 50.38734 | 9.41756 | 9132 ft | 269 kts | 228° |
| 2026-05-05 10:25 | 50.37515 | 9.39541 | 8744 ft | 268 kts | 228° |
| 2026-05-05 10:25 | 50.36301 | 9.37340 | 8364 ft | 266 kts | 228° |
| 2026-05-05 10:26 | 50.35093 | 9.35155 | 7987 ft | 265 kts | 228° |
| 2026-05-05 10:26 | 50.33887 | 9.32977 | 7599 ft | 264 kts | 228° |
| 2026-05-05 10:26 | 50.32691 | 9.30825 | 7230 ft | 263 kts | 228° |
| 2026-05-05 10:26 | 50.31493 | 9.28675 | 6907 ft | 260 kts | 228° |
| 2026-05-05 10:27 | 50.30317 | 9.26570 | 6861 ft | 256 kts | 228° |
| 2026-05-05 10:27 | 50.29144 | 9.24466 | 6867 ft | 257 kts | 228° |
| 2026-05-05 10:27 | 50.27969 | 9.22360 | 6875 ft | 258 kts | 228° |
| 2026-05-05 10:27 | 50.26811 | 9.20281 | 6865 ft | 246 kts | 228° |
| 2026-05-05 10:28 | 50.25706 | 9.18293 | 6702 ft | 239 kts | 228° |
| 2026-05-05 10:28 | 50.24645 | 9.16385 | 6503 ft | 228 kts | 228° |
| 2026-05-05 10:28 | 50.23617 | 9.14532 | 6338 ft | 224 kts | 228° |
| 2026-05-05 10:28 | 50.22598 | 9.12699 | 6141 ft | 223 kts | 228° |
| 2026-05-05 10:29 | 50.21582 | 9.10871 | 5945 ft | 223 kts | 228° |
| 2026-05-05 10:29 | 50.20565 | 9.09044 | 5735 ft | 222 kts | 228° |
| 2026-05-05 10:29 | 50.19549 | 9.07224 | 5532 ft | 222 kts | 228° |
| 2026-05-05 10:29 | 50.18534 | 9.05414 | 5330 ft | 222 kts | 228° |
| 2026-05-05 10:30 | 50.17516 | 9.03604 | 5127 ft | 222 kts | 228° |
| 2026-05-05 10:30 | 50.16498 | 9.01799 | 4923 ft | 221 kts | 228° |
| 2026-05-05 10:30 | 50.15477 | 8.99998 | 4723 ft | 221 kts | 228° |
| 2026-05-05 10:30 | 50.14457 | 8.98208 | 4529 ft | 221 kts | 228° |
| 2026-05-05 10:31 | 50.13445 | 8.96435 | 4315 ft | 213 kts | 228° |
| 2026-05-05 10:31 | 50.12587 | 8.94659 | 4110 ft | 199 kts | 242° |
| 2026-05-05 10:31 | 50.12073 | 8.92762 | 4020 ft | 182 kts | 248° |
| 2026-05-05 10:31 | 50.11638 | 8.90941 | 4003 ft | 175 kts | 249° |
| 2026-05-05 10:32 | 50.11227 | 8.89199 | 4000 ft | 169 kts | 249° |
| 2026-05-05 10:32 | 50.10824 | 8.87483 | 4007 ft | 169 kts | 249° |
| 2026-05-05 10:32 | 50.10419 | 8.85764 | 3919 ft | 168 kts | 249° |
| 2026-05-05 10:32 | 50.10016 | 8.84051 | 3738 ft | 168 kts | 249° |
| 2026-05-05 10:33 | 50.09616 | 8.82351 | 3524 ft | 167 kts | 249° |
| 2026-05-05 10:33 | 50.09215 | 8.80650 | 3313 ft | 168 kts | 249° |
| 2026-05-05 10:33 | 50.08812 | 8.78944 | 3098 ft | 167 kts | 249° |
| 2026-05-05 10:33 | 50.08412 | 8.77246 | 2869 ft | 167 kts | 249° |
| 2026-05-05 10:34 | 50.08012 | 8.75553 | 2650 ft | 167 kts | 249° |
| 2026-05-05 10:34 | 50.07746 | 8.74429 | 2502 ft | 167 kts | 249° |
| 2026-05-05 10:34 | 50.07345 | 8.72734 | 2280 ft | 167 kts | 250° |
| 2026-05-05 10:34 | 50.06940 | 8.71021 | 2057 ft | 166 kts | 250° |
| 2026-05-05 10:35 | 50.06546 | 8.69361 | 1833 ft | 163 kts | 250° |
| 2026-05-05 10:35 | 50.06169 | 8.67769 | 1627 ft | 153 kts | 250° |
| 2026-05-05 10:35 | 50.05804 | 8.66231 | 1421 ft | 150 kts | 250° |
| 2026-05-05 10:35 | 50.05446 | 8.64722 | 1219 ft | 148 kts | 250° |
| 2026-05-05 10:36 | 50.05087 | 8.63218 | 1011 ft | 148 kts | 250° |
| 2026-05-05 10:36 | 50.04728 | 8.61721 | 806 ft | 148 kts | 250° |
| 2026-05-05 10:36 | 50.04371 | 8.60227 | 629 ft | 147 kts | 251° |
| 2026-05-05 10:36 | 50.04019 | 8.58729 | 425 ft | 147 kts | 251° |
| 2026-05-05 10:37 | 50.03683 | 8.57280 | 357 ft | 130 kts | 249° |
| 2026-05-05 10:37 | 50.03446 | 8.56302 | 359 ft | 55 kts | 250° |
| 2026-05-05 10:37 | 50.03358 | 8.55933 | 355 ft | 34 kts | 250° |
| 2026-05-05 10:37 | 50.03309 | 8.55569 | 343 ft | 35 kts | 271° |
| 2026-05-05 10:38 | 50.03336 | 8.55292 | 346 ft | 18 kts | 279° |
| 2026-05-05 10:38 | 50.03344 | 8.55211 | 342 ft | 2 kts | 280° |
| 2026-05-05 10:38 | 50.03345 | 8.55204 | 342 ft | 2 kts | 280° |
| 2026-05-05 10:38 | 50.03356 | 8.55122 | 342 ft | 11 kts | 282° |
| 2026-05-05 10:39 | 50.03367 | 8.55002 | 342 ft | 11 kts | 270° |
| 2026-05-05 10:39 | 50.03344 | 8.54853 | 337 ft | 18 kts | 250° |
| 2026-05-05 10:39 | 50.03297 | 8.54661 | 335 ft | 18 kts | 249° |
| 2026-05-05 10:39 | 50.03304 | 8.54490 | 336 ft | 17 kts | 325° |
| 2026-05-05 10:40 | 50.03381 | 8.54441 | 337 ft | 6 kts | 339° |
| 2026-05-05 10:40 | 50.03389 | 8.54436 | 339 ft | 0 kts | 339° |
| 2026-05-05 10:40 | 50.03389 | 8.54435 | 339 ft | 0 kts | 339° |
| 2026-05-05 10:41 | 50.03391 | 8.54435 | 339 ft | 0 kts | 339° |
| 2026-05-05 10:41 | 50.03423 | 8.54416 | 351 ft | 12 kts | 340° |
| 2026-05-05 10:41 | 50.03502 | 8.54371 | 347 ft | 13 kts | 340° |
| 2026-05-05 10:41 | 50.03593 | 8.54319 | 349 ft | 12 kts | 339° |
| 2026-05-05 10:42 | 50.03649 | 8.54321 | 349 ft | 0 kts | 37° |
| 2026-05-05 10:43 | 50.03658 | 8.54336 | 347 ft | 7 kts | 50° |
| 2026-05-05 10:43 | 50.03685 | 8.54426 | 347 ft | 10 kts | 70° |
| 2026-05-05 10:43 | 50.03711 | 8.54537 | 350 ft | 13 kts | 70° |
| 2026-05-05 10:43 | 50.03751 | 8.54705 | 354 ft | 21 kts | 69° |
| 2026-05-05 10:44 | 50.03802 | 8.54921 | 354 ft | 22 kts | 70° |
| 2026-05-05 10:44 | 50.03854 | 8.55143 | 358 ft | 22 kts | 70° |
| 2026-05-05 10:44 | 50.03909 | 8.55371 | 351 ft | 23 kts | 70° |
| 2026-05-05 10:44 | 50.03967 | 8.55608 | 351 ft | 24 kts | 69° |
| 2026-05-05 10:45 | 50.04017 | 8.55819 | 353 ft | 14 kts | 70° |
| 2026-05-05 10:45 | 50.04062 | 8.55957 | 360 ft | 14 kts | 36° |
| 2026-05-05 10:45 | 50.04155 | 8.55935 | 352 ft | 15 kts | 340° |
| 2026-05-05 10:45 | 50.04255 | 8.55951 | 361 ft | 15 kts | 21° |
| 2026-05-05 10:46 | 50.04354 | 8.55922 | 359 ft | 15 kts | 341° |
| 2026-05-05 10:46 | 50.04456 | 8.55924 | 357 ft | 15 kts | 15° |
| 2026-05-05 10:46 | 50.04556 | 8.55994 | 360 ft | 17 kts | 53° |
| 2026-05-05 10:46 | 50.04602 | 8.56167 | 363 ft | 18 kts | 71° |
| 2026-05-05 10:47 | 50.04647 | 8.56356 | 362 ft | 19 kts | 69° |
| 2026-05-05 10:47 | 50.04684 | 8.56504 | 361 ft | 12 kts | 67° |
| 2026-05-05 10:47 | 50.04731 | 8.56590 | 356 ft | 9 kts | 31° |
| 2026-05-05 10:47 | 50.04771 | 8.56602 | 356 ft | 3 kts | 355° |
| 2026-05-05 10:48 | 50.04801 | 8.56588 | 359 ft | 2 kts | 340° |
| 2026-05-05 10:48 | 50.04808 | 8.56584 | 356 ft | 0 kts | 340° |